Time;durP1;ratioP1;P1;durP2;ratioP2;P2;SDS_P1;SDS_P2;PMS_P1;PMS_P2;Temp;Humidity;BMP_temperature;BMP_pressure;BME280_temperature;BME280_humidity;BME280_pressure;Samples;Min_cycle;Max_cycle;Signal;HPM_P1;HPM_P2
2021/10/11 00:02:02;;;;;;;5.93;0.35;;;;;;;11.93;50.52;102365.69;5029396;28;20328;-70
2021/10/11 00:04:28;;;;;;;4.72;1.38;;;;;;;11.85;50.87;102361.50;5029628;28;20072;-67
2021/10/11 00:06:54;;;;;;;4.32;0.50;;;;;;;11.85;50.48;102366.72;5031310;28;20107;-67
2021/10/11 00:09:20;;;;;;;3.83;0.75;;;;;;;11.79;50.87;102359.00;5034978;28;20076;-68
2021/10/11 00:11:45;;;;;;;5.78;0.65;;;;;;;11.83;50.90;102363.28;5028964;28;20139;-68
2021/10/11 00:14:11;;;;;;;8.63;0.68;;;;;;;11.91;51.00;102362.25;5031064;28;20048;-68
2021/10/11 00:16:36;;;;;;;1.85;0.25;;;;;;;11.89;50.67;102367.53;5029156;28;20048;-67
2021/10/11 00:19:05;;;;;;;5.45;0.93;;;;;;;11.91;50.80;102362.25;5035322;28;20040;-71
2021/10/11 00:21:31;;;;;;;5.25;0.80;;;;;;;11.88;50.27;102366.66;5031337;28;20089;-67
2021/10/11 00:23:57;;;;;;;4.35;0.38;;;;;;;11.81;50.71;102366.84;5025795;28;20458;-67
2021/10/11 00:26:22;;;;;;;1.73;0.25;;;;;;;11.72;50.72;102361.75;5028731;28;20080;-67
2021/10/11 00:28:48;;;;;;;4.05;0.40;;;;;;;11.58;50.58;102356.81;5028972;28;20485;-67
2021/10/11 00:31:14;;;;;;;9.35;0.57;;;;;;;11.44;51.13;102360.56;5017565;28;20510;-68
2021/10/11 00:33:39;;;;;;;1.65;0.45;;;;;;;11.31;51.34;102360.81;5028828;28;20055;-67
2021/10/11 00:36:05;;;;;;;3.30;0.40;;;;;;;11.24;51.17;102365.31;5031059;28;20734;-68
2021/10/11 00:38:31;;;;;;;5.85;0.30;;;;;;;11.18;51.51;102361.06;5030380;28;20379;-67
2021/10/11 00:40:56;;;;;;;6.03;1.15;;;;;;;11.09;51.42;102363.00;5032227;28;20083;-68
2021/10/11 00:43:22;;;;;;;4.15;0.50;;;;;;;11.02;51.47;102360.50;5030685;28;20675;-68
2021/10/11 00:45:49;;;;;;;6.18;0.50;;;;;;;11.02;51.86;102355.25;5028004;28;20045;-67
2021/10/11 00:48:14;;;;;;;3.67;0.68;;;;;;;10.97;52.11;102362.34;5028107;28;20029;-67
2021/10/11 00:50:40;;;;;;;4.78;0.40;;;;;;;10.98;51.95;102364.06;5035084;28;20044;-67
2021/10/11 00:53:05;;;;;;;4.28;0.30;;;;;;;10.97;51.84;102364.06;5032094;28;20087;-67
2021/10/11 00:55:31;;;;;;;8.10;0.85;;;;;;;10.94;51.80;102361.53;5028838;28;20704;-67
2021/10/11 00:57:56;;;;;;;6.07;0.57;;;;;;;10.93;51.80;102365.91;5034735;28;20026;-66
2021/10/11 01:00:22;;;;;;;2.25;0.70;;;;;;;10.95;51.97;102358.88;5032726;28;20079;-68
2021/10/11 01:02:47;;;;;;;11.70;0.98;;;;;;;10.84;52.34;102358.22;5029600;28;20094;-68
2021/10/11 01:05:13;;;;;;;1.88;0.40;;;;;;;10.86;52.32;102358.16;5030803;28;20045;-68
2021/10/11 01:07:38;;;;;;;3.47;0.47;;;;;;;10.78;52.28;102356.53;5029593;28;20472;-69
2021/10/11 01:10:04;;;;;;;2.25;0.63;;;;;;;10.81;52.43;102366.06;5025648;28;20060;-69
2021/10/11 01:12:30;;;;;;;8.35;0.50;;;;;;;10.78;52.41;102356.53;5028253;28;20043;-67
2021/10/11 01:14:56;;;;;;;1.25;0.50;;;;;;;10.80;52.49;102351.28;5028210;28;20036;-66
2021/10/11 01:17:21;;;;;;;4.35;0.55;;;;;;;10.87;52.32;102355.53;5028070;28;20398;-68
2021/10/11 01:19:54;;;;;;;3.65;0.80;;;;;;;10.84;52.54;102355.59;5028166;28;20045;-66
2021/10/11 01:22:20;;;;;;;11.27;0.63;;;;;;;10.84;52.56;102353.00;5028199;28;20091;-66
2021/10/11 01:24:48;;;;;;;8.13;0.85;;;;;;;10.85;52.63;102354.69;5029184;28;20065;-66
2021/10/11 01:27:15;;;;;;;8.93;0.68;;;;;;;10.84;52.59;102339.91;5028652;28;20039;-70
2021/10/11 01:29:41;;;;;;;3.78;0.50;;;;;;;10.87;52.83;102341.59;5027058;28;20033;-70
2021/10/11 01:32:07;;;;;;;3.20;0.55;;;;;;;10.98;52.47;102353.59;5027231;28;20034;-68
2021/10/11 01:34:32;;;;;;;15.80;0.75;;;;;;;10.85;52.64;102357.31;5034901;28;20029;-69
2021/10/11 01:36:58;;;;;;;8.35;0.80;;;;;;;10.68;53.21;102351.47;5028247;28;20036;-68
2021/10/11 01:39:23;;;;;;;12.43;1.10;;;;;;;10.60;53.09;102349.00;5029270;28;20029;-69
2021/10/11 01:41:49;;;;;;;6.90;0.82;;;;;;;10.88;52.75;102352.03;5024983;28;20140;-70
2021/10/11 01:44:14;;;;;;;6.90;0.50;;;;;;;10.91;52.76;102341.53;5034110;28;20071;-65
2021/10/11 01:46:40;;;;;;;4.43;0.28;;;;;;;11.00;52.47;102340.50;5021978;28;20049;-70
2021/10/11 01:49:05;;;;;;;3.83;0.90;;;;;;;11.00;52.52;102340.50;5037165;28;20045;-68
2021/10/11 01:51:31;;;;;;;8.32;0.47;;;;;;;11.02;52.44;102336.94;5037425;28;20036;-66
2021/10/11 01:53:57;;;;;;;4.22;0.45;;;;;;;10.81;52.93;102339.91;5032692;28;20036;-67
2021/10/11 01:56:22;;;;;;;7.03;0.50;;;;;;;11.03;52.44;102350.88;5034447;28;20033;-67
2021/10/11 01:58:48;;;;;;;5.75;1.33;;;;;;;11.07;52.50;102343.84;5031999;28;20432;-68
2021/10/11 02:01:13;;;;;;;4.88;0.60;;;;;;;11.07;52.43;102338.63;5048893;28;20064;-69
2021/10/11 02:03:39;;;;;;;5.45;0.50;;;;;;;11.07;52.42;102330.78;5022200;28;20110;-69
2021/10/11 02:06:04;;;;;;;6.70;0.93;;;;;;;11.05;52.34;102329.03;5033290;28;20056;-69
2021/10/11 02:08:30;;;;;;;9.18;0.40;;;;;;;11.09;52.25;102329.00;5031208;28;20041;-70
2021/10/11 02:10:56;;;;;;;7.53;0.60;;;;;;;11.13;52.67;102321.06;5034031;28;20410;-69
2021/10/11 02:13:21;;;;;;;6.25;0.65;;;;;;;11.13;52.14;102314.94;5032393;28;20128;-70
2021/10/11 02:15:47;;;;;;;3.08;0.63;;;;;;;11.12;52.16;102321.94;5035340;28;20037;-69
2021/10/11 02:18:12;;;;;;;9.10;0.75;;;;;;;11.11;52.22;102321.97;5031392;28;20040;-69
2021/10/11 02:20:38;;;;;;;7.50;0.93;;;;;;;11.03;52.12;102315.13;5033008;28;20811;-69
2021/10/11 02:23:04;;;;;;;11.27;0.28;;;;;;;11.02;52.09;102318.63;5036154;28;20064;-68
2021/10/11 02:25:30;;;;;;;3.75;0.35;;;;;;;10.95;51.95;102317.03;5030892;28;20120;-70
2021/10/11 02:27:56;;;;;;;1.13;0.47;;;;;;;10.92;52.11;102321.44;5049058;28;20044;-67
2021/10/11 02:30:21;;;;;;;9.68;0.30;;;;;;;10.82;52.27;102313.78;5032067;28;20037;-68
2021/10/11 02:32:47;;;;;;;3.45;0.40;;;;;;;10.76;51.83;102307.75;5030039;28;20898;-69
2021/10/11 02:35:13;;;;;;;6.95;0.30;;;;;;;10.74;51.95;102299.94;5031161;28;20531;-69
2021/10/11 02:37:39;;;;;;;3.00;0.70;;;;;;;10.71;52.07;102306.97;5037922;28;20106;-67
2021/10/11 02:40:05;;;;;;;4.60;0.77;;;;;;;10.66;52.08;102303.56;5037559;28;20037;-70
2021/10/11 02:42:30;;;;;;;6.47;1.15;;;;;;;10.60;52.02;102305.41;5021512;28;20048;-69
2021/10/11 02:44:56;;;;;;;7.00;0.50;;;;;;;10.60;52.25;102305.41;5031863;28;20029;-67
2021/10/11 02:47:21;;;;;;;3.67;0.50;;;;;;;10.46;52.07;102304.78;5027128;28;20041;-67
2021/10/11 02:49:47;;;;;;;5.28;0.88;;;;;;;10.36;52.22;102292.75;5042113;28;20056;-67
2021/10/11 02:52:12;;;;;;;7.00;0.47;;;;;;;10.25;52.41;102297.28;5029405;28;20084;-68
2021/10/11 02:54:38;;;;;;;6.40;0.57;;;;;;;10.28;52.54;102286.78;5030029;28;20331;-68
2021/10/11 02:57:03;;;;;;;4.65;0.50;;;;;;;10.30;52.47;102282.41;5030491;28;20122;-69
2021/10/11 02:59:29;;;;;;;5.50;0.82;;;;;;;10.19;52.54;102288.69;5034336;28;20026;-67
2021/10/11 03:01:54;;;;;;;9.45;0.60;;;;;;;10.10;52.73;102275.75;5029325;28;20033;-68
2021/10/11 03:04:20;;;;;;;3.28;0.40;;;;;;;10.08;53.10;102274.91;5036822;28;20429;-69
2021/10/11 03:06:45;;;;;;;6.38;0.45;;;;;;;10.05;52.85;102285.41;5033829;28;20052;-68
2021/10/11 03:09:11;;;;;;;8.48;1.13;;;;;;;10.10;52.72;102278.38;5031715;28;20476;-68
2021/10/11 03:11:36;;;;;;;4.90;0.30;;;;;;;10.04;52.70;102278.47;5028034;28;20315;-68
2021/10/11 03:14:02;;;;;;;3.10;0.22;;;;;;;10.13;52.75;102273.09;5031020;28;20045;-68
2021/10/11 03:16:27;;;;;;;2.95;0.20;;;;;;;10.13;52.81;102278.31;5029278;28;20021;-67
2021/10/11 03:18:53;;;;;;;6.97;0.30;;;;;;;10.12;52.92;102276.56;5046299;28;20498;-67
2021/10/11 03:21:21;;;;;;;6.13;0.50;;;;;;;10.11;52.43;102274.84;5032638;28;20068;-68
2021/10/11 03:23:51;;;;;;;6.80;0.47;;;;;;;10.04;52.54;102275.00;5021471;28;20045;-68
2021/10/11 03:26:18;;;;;;;2.95;0.20;;;;;;;10.05;52.49;102269.72;5023707;28;20109;-68
2021/10/11 03:28:44;;;;;;;6.07;0.65;;;;;;;10.05;52.40;102272.34;5012975;28;20046;-67
2021/10/11 03:31:10;;;;;;;3.40;0.20;;;;;;;10.06;52.45;102271.47;5009590;28;20068;-69
2021/10/11 03:33:36;;;;;;;3.00;0.63;;;;;;;10.11;52.14;102272.25;5028876;28;20469;-68
2021/10/11 03:36:01;;;;;;;4.95;0.45;;;;;;;10.08;51.89;102272.31;5038403;28;20342;-68
2021/10/11 03:38:27;;;;;;;2.72;0.30;;;;;;;10.10;51.87;102273.16;5034431;28;20053;-68
2021/10/11 03:40:52;;;;;;;6.25;1.30;;;;;;;10.14;51.94;102269.56;5032868;28;20029;-70
2021/10/11 03:43:18;;;;;;;6.97;0.38;;;;;;;10.20;51.82;102272.09;5032468;28;20136;-70
2021/10/11 03:45:43;;;;;;;4.55;0.40;;;;;;;10.21;51.90;102271.22;5031825;28;20537;-70
2021/10/11 03:48:09;;;;;;;6.72;0.35;;;;;;;10.25;52.12;102263.31;5026402;28;20073;-69
2021/10/11 03:50:34;;;;;;;2.10;1.15;;;;;;;10.30;52.02;102269.31;5039105;28;20045;-67
2021/10/11 03:53:00;;;;;;;8.48;0.68;;;;;;;10.33;51.91;102272.75;5033442;28;20099;-65
2021/10/11 03:55:25;;;;;;;1.83;0.28;;;;;;;10.33;51.69;102264.94;5029987;28;20315;-68
2021/10/11 03:57:51;;;;;;;10.55;0.30;;;;;;;10.33;51.74;102266.69;5030516;28;20528;-68
2021/10/11 04:00:16;;;;;;;9.60;0.73;;;;;;;10.30;51.26;102277.16;5031601;28;20218;-68
2021/10/11 04:02:42;;;;;;;8.57;0.45;;;;;;;9.88;52.20;102292.63;5029256;28;20048;-69
2021/10/11 04:05:08;;;;;;;7.82;0.38;;;;;;;10.22;51.16;102283.38;5031838;28;20063;-66
2021/10/11 04:07:34;;;;;;;5.80;0.50;;;;;;;10.26;50.89;102283.31;5045030;28;20185;-66
2021/10/11 04:10:03;;;;;;;6.50;1.13;;;;;;;10.35;51.17;102272.75;5026887;28;20037;-67
2021/10/11 04:12:34;;;;;;;9.38;1.05;;;;;;;10.32;51.02;102278.00;5028938;28;20504;-72
2021/10/11 04:15:00;;;;;;;5.78;0.93;;;;;;;10.29;51.02;102267.63;5030554;28;20040;-65
2021/10/11 04:17:25;;;;;;;3.60;0.65;;;;;;;10.28;51.19;102277.22;5033140;28;20079;-68
2021/10/11 04:19:51;;;;;;;7.60;0.47;;;;;;;10.36;51.16;102274.47;5026056;28;20419;-69
2021/10/11 04:22:16;;;;;;;2.10;0.40;;;;;;;10.44;50.82;102275.19;5031478;28;20055;-69
2021/10/11 04:24:42;;;;;;;3.13;0.20;;;;;;;10.33;51.08;102275.38;5032029;28;20549;-68
2021/10/11 04:27:07;;;;;;;4.40;0.13;;;;;;;10.41;51.10;102285.69;5021172;28;20136;-68
2021/10/11 04:29:33;;;;;;;5.45;0.50;;;;;;;10.37;51.48;102284.00;5046371;28;20033;-68
2021/10/11 04:31:58;;;;;;;7.22;0.75;;;;;;;10.33;51.51;102283.22;5029924;28;20339;-68
2021/10/11 04:34:24;;;;;;;5.30;0.80;;;;;;;10.46;51.30;102290.84;5028527;28;20029;-69
2021/10/11 04:36:49;;;;;;;4.65;0.40;;;;;;;10.42;51.11;102290.03;5038489;28;20119;-67
2021/10/11 04:39:15;;;;;;;5.43;0.63;;;;;;;10.45;51.44;102284.75;5028834;28;20029;-68
2021/10/11 04:41:40;;;;;;;2.67;0.40;;;;;;;10.55;51.34;102288.94;5027229;28;20486;-67
2021/10/11 04:44:06;;;;;;;5.15;0.47;;;;;;;10.53;51.01;102285.50;5031253;28;20501;-66
2021/10/11 04:46:31;;;;;;;8.30;0.73;;;;;;;10.29;50.92;102288.53;5028587;28;20037;-66
2021/10/11 04:48:57;;;;;;;2.25;0.40;;;;;;;10.34;51.56;102286.69;5029100;28;20037;-67
2021/10/11 04:51:22;;;;;;;9.25;0.45;;;;;;;10.36;51.36;102279.69;5031264;28;20040;-67
2021/10/11 04:53:48;;;;;;;4.40;0.75;;;;;;;10.26;50.96;102291.16;5029253;28;20468;-68
2021/10/11 04:56:13;;;;;;;6.25;0.75;;;;;;;10.22;51.04;102291.22;5029279;28;20021;-67
2021/10/11 04:58:39;;;;;;;5.85;0.52;;;;;;;10.14;51.08;102292.22;5026444;28;20499;-66
2021/10/11 05:01:04;;;;;;;5.78;0.32;;;;;;;10.00;51.63;102295.06;5027789;28;20116;-66
2021/10/11 05:03:30;;;;;;;3.53;0.30;;;;;;;9.91;51.37;102289.97;5027381;28;20403;-67
2021/10/11 05:05:55;;;;;;;2.35;0.43;;;;;;;9.83;51.65;102295.28;5028430;28;20108;-67
2021/10/11 05:08:21;;;;;;;3.45;0.93;;;;;;;9.77;51.72;102296.22;5031450;28;20041;-69
2021/10/11 05:10:46;;;;;;;6.25;1.02;;;;;;;9.68;51.54;102296.34;5026939;28;20638;-67
2021/10/11 05:13:11;;;;;;;5.18;0.82;;;;;;;9.64;51.81;102299.88;5034950;28;20034;-66
2021/10/11 05:15:37;;;;;;;5.68;0.55;;;;;;;9.63;51.99;102303.38;5045182;28;20474;-66
2021/10/11 05:18:03;;;;;;;2.78;0.60;;;;;;;9.58;51.56;102295.59;5035018;28;20461;-66
2021/10/11 05:20:32;;;;;;;4.57;0.80;;;;;;;9.47;51.61;102304.44;5037883;28;20540;-66
2021/10/11 05:22:58;;;;;;;5.20;0.32;;;;;;;9.31;51.74;102295.97;5032563;28;20061;-67
2021/10/11 05:25:26;;;;;;;7.53;1.38;;;;;;;9.27;51.62;102305.56;5031559;28;20561;-69
2021/10/11 05:27:51;;;;;;;6.20;0.88;;;;;;;9.20;51.99;102306.50;5037555;28;20529;-70
2021/10/11 05:30:17;;;;;;;5.78;0.55;;;;;;;8.98;51.80;102298.06;5024130;28;20029;-67
2021/10/11 05:32:42;;;;;;;3.20;1.20;;;;;;;8.88;52.22;102297.28;5040422;28;20040;-68
2021/10/11 05:35:08;;;;;;;1.88;0.50;;;;;;;8.79;52.30;102304.34;5030987;28;20040;-70
2021/10/11 05:37:35;;;;;;;4.78;0.73;;;;;;;8.64;52.71;102306.19;5031442;28;20052;-69
2021/10/11 05:40:01;;;;;;;6.70;0.95;;;;;;;8.61;52.66;102297.53;5031776;28;20091;-69
2021/10/11 05:42:26;;;;;;;1.38;0.32;;;;;;;8.69;52.79;102295.72;5029718;28;20048;-69
2021/10/11 05:44:52;;;;;;;20.35;4.57;;;;;;;8.61;52.56;102292.31;5029663;28;20468;-69
2021/10/11 05:47:18;;;;;;;7.95;1.95;;;;;;;8.69;53.01;102300.91;5029436;28;20503;-68
2021/10/11 05:49:44;;;;;;;11.70;1.15;;;;;;;8.62;52.74;102299.25;5034039;28;20037;-70
2021/10/11 05:52:09;;;;;;;8.27;0.85;;;;;;;8.62;53.13;102301.88;5030959;28;20049;-69
2021/10/11 05:54:34;;;;;;;10.55;0.80;;;;;;;8.64;52.54;102302.72;5030877;28;20041;-69
2021/10/11 05:57:00;;;;;;;2.40;0.47;;;;;;;8.59;52.82;102299.28;5031052;28;20038;-69
2021/10/11 05:59:26;;;;;;;7.90;1.10;;;;;;;8.61;52.85;102303.59;5033898;28;20104;-69
2021/10/11 06:01:51;;;;;;;8.85;0.60;;;;;;;8.64;52.87;102297.50;5040105;28;20144;-70
2021/10/11 06:04:17;;;;;;;4.55;0.68;;;;;;;8.66;52.99;102307.03;5029742;28;20112;-69
2021/10/11 06:06:42;;;;;;;10.32;1.17;;;;;;;8.74;52.68;102304.41;5045559;28;20073;-66
2021/10/11 06:09:08;;;;;;;7.82;0.57;;;;;;;8.77;52.95;102305.22;5031516;28;20080;-67
2021/10/11 06:11:33;;;;;;;4.38;0.80;;;;;;;8.83;52.95;102299.09;5031118;28;20571;-68
2021/10/11 06:13:59;;;;;;;15.45;1.08;;;;;;;9.00;52.97;102305.88;5040062;28;20099;-66
2021/10/11 06:16:25;;;;;;;2.55;1.20;;;;;;;9.09;52.82;102310.97;5032215;28;20040;-66
2021/10/11 06:18:51;;;;;;;9.30;2.38;;;;;;;9.16;52.62;102307.41;5031968;28;20097;-67
2021/10/11 06:21:16;;;;;;;9.00;3.28;;;;;;;9.27;52.20;102312.53;5031824;28;20044;-69
2021/10/11 06:23:42;;;;;;;11.13;2.90;;;;;;;9.29;52.12;102311.63;5036124;28;20045;-70
2021/10/11 06:26:07;;;;;;;7.28;1.75;;;;;;;9.49;52.31;102307.91;5038756;28;20497;-68
2021/10/11 06:28:33;;;;;;;4.28;1.25;;;;;;;9.58;52.20;102310.41;5033835;28;20552;-67
2021/10/11 06:30:58;;;;;;;8.13;0.93;;;;;;;9.93;51.50;102316.94;5030248;28;20037;-67
2021/10/11 06:33:25;;;;;;;5.30;1.08;;;;;;;10.19;50.42;102308.69;5031190;28;20049;-67
2021/10/11 06:35:50;;;;;;;10.20;1.00;;;;;;;10.30;50.16;102314.59;5038007;28;20033;-67
2021/10/11 06:38:16;;;;;;;6.07;0.95;;;;;;;10.42;50.25;102305.72;5036687;28;20143;-68
2021/10/11 06:40:48;;;;;;;2.08;0.30;;;;;;;10.47;49.77;102309.13;5036825;28;20037;-66
2021/10/11 06:43:13;;;;;;;6.82;1.10;;;;;;;10.56;49.67;102316.81;5033804;28;20132;-66
2021/10/11 06:45:38;;;;;;;5.60;0.55;;;;;;;10.68;49.50;102307.88;5031265;28;20052;-67
2021/10/11 06:48:04;;;;;;;3.22;0.30;;;;;;;10.80;49.31;102320.75;5030173;28;20048;-66
2021/10/11 06:50:30;;;;;;;4.55;0.30;;;;;;;11.05;49.13;102318.56;5030976;28;20041;-67
2021/10/11 06:52:55;;;;;;;22.48;11.85;;;;;;;12.16;47.68;102316.25;5038210;28;20048;-67
2021/10/11 06:55:21;;;;;;;7.68;0.60;;;;;;;12.27;44.94;102324.72;5033038;28;20032;-66
2021/10/11 06:57:46;;;;;;;5.43;1.15;;;;;;;12.14;46.24;102318.03;5027400;28;20059;-67
2021/10/11 07:00:12;;;;;;;5.43;0.95;;;;;;;11.91;46.14;102321.22;5030270;28;20075;-67
2021/10/11 07:02:38;;;;;;;6.75;0.93;;;;;;;11.79;46.97;102324.09;5037944;28;20040;-67
2021/10/11 07:05:10;;;;;;;4.00;0.60;;;;;;;11.72;47.21;102331.19;5031156;28;20091;-68
2021/10/11 07:07:38;;;;;;;2.88;0.60;;;;;;;11.71;47.37;102329.47;5023181;28;20058;-68
2021/10/11 07:10:04;;;;;;;4.82;0.63;;;;;;;11.78;47.45;102328.47;5012959;28;20044;-67
2021/10/11 07:12:30;;;;;;;10.55;0.52;;;;;;;11.91;46.67;102328.19;5009912;28;20037;-68
2021/10/11 07:14:55;;;;;;;5.95;0.70;;;;;;;11.97;46.90;102335.91;5005493;28;20570;-68
2021/10/11 07:17:20;;;;;;;3.42;0.82;;;;;;;12.08;46.68;102336.53;5018898;28;20047;-70
2021/10/11 07:19:46;;;;;;;3.95;0.35;;;;;;;12.07;46.73;102334.81;5036636;28;20033;-67
2021/10/11 07:22:15;;;;;;;6.57;0.50;;;;;;;12.16;46.70;102333.75;5030969;28;20091;-69
2021/10/11 07:24:42;;;;;;;11.50;1.30;;;;;;;12.21;46.54;102334.50;5030556;28;20026;-68
2021/10/11 07:27:08;;;;;;;7.63;1.02;;;;;;;12.07;45.64;102340.91;5046812;28;20103;-68
2021/10/11 07:29:35;;;;;;;11.63;1.23;;;;;;;12.23;46.84;102344.03;5032458;28;20026;-69
2021/10/11 07:32:00;;;;;;;4.70;0.73;;;;;;;12.58;45.15;102346.69;5029416;28;20164;-68
2021/10/11 07:34:26;;;;;;;2.25;0.17;;;;;;;12.66;44.40;102350.84;5031832;28;20029;-68
2021/10/11 07:36:51;;;;;;;1.77;0.20;;;;;;;12.64;44.79;102354.41;5027614;28;20168;-68
2021/10/11 07:39:17;;;;;;;6.85;0.73;;;;;;;12.44;45.43;102362.78;5034273;28;20025;-67
2021/10/11 07:41:42;;;;;;;7.57;0.40;;;;;;;12.12;46.38;102363.53;5026249;28;20513;-68
2021/10/11 07:44:09;;;;;;;3.90;0.70;;;;;;;11.82;47.88;102365.91;5030416;28;20041;-67
2021/10/11 07:46:34;;;;;;;4.25;0.80;;;;;;;11.80;48.46;102358.13;5027845;28;20037;-66
2021/10/11 07:49:00;;;;;;;5.00;0.45;;;;;;;12.04;48.15;102359.34;5029345;28;20091;-68
2021/10/11 07:51:26;;;;;;;9.18;0.95;;;;;;;12.02;48.21;102360.25;5026706;28;20096;-67
2021/10/11 07:53:51;;;;;;;3.53;0.68;;;;;;;11.94;48.10;102362.19;5008014;28;20041;-67
2021/10/11 07:56:16;;;;;;;1.38;0.70;;;;;;;11.78;48.52;102354.66;5010455;28;20033;-69
2021/10/11 07:58:42;;;;;;;1.90;0.30;;;;;;;11.90;48.56;102356.16;5014680;28;20542;-68
2021/10/11 08:01:07;;;;;;;7.72;0.40;;;;;;;12.34;48.78;102361.28;5012600;28;20038;-67
2021/10/11 08:03:33;;;;;;;6.97;0.38;;;;;;;12.53;48.00;102362.53;5025504;28;20115;-68
2021/10/11 08:06:03;;;;;;;2.30;0.28;;;;;;;12.75;48.27;102367.28;5029279;28;20124;-68
2021/10/11 08:08:30;;;;;;;5.82;0.85;;;;;;;12.72;48.04;102364.75;5023431;28;20048;-68
2021/10/11 08:10:55;;;;;;;4.32;0.20;;;;;;;12.28;48.54;102365.75;5031384;28;20033;-68
2021/10/11 08:13:21;;;;;;;9.40;0.50;;;;;;;11.98;49.25;102358.63;5037574;28;20044;-68
2021/10/11 08:15:46;;;;;;;7.63;0.52;;;;;;;12.39;49.19;102354.16;5029542;28;20029;-67
2021/10/11 08:18:11;;;;;;;4.18;0.50;;;;;;;12.69;48.35;102358.69;5028786;28;20127;-68
2021/10/11 08:20:37;;;;;;;4.43;0.35;;;;;;;12.84;47.75;102351.31;5027989;28;20036;-67
2021/10/11 08:23:03;;;;;;;2.22;0.32;;;;;;;13.04;47.85;102356.88;5025786;28;20043;-66
2021/10/11 08:25:30;;;;;;;3.40;0.57;;;;;;;13.27;47.48;102356.28;5034293;28;20120;-68
2021/10/11 08:27:56;;;;;;;7.90;0.40;;;;;;;13.21;46.86;102359.06;5025190;28;20051;-67
2021/10/11 08:30:21;;;;;;;5.57;0.70;;;;;;;13.07;46.34;102350.69;5034688;28;20036;-66
2021/10/11 08:32:46;;;;;;;4.18;0.25;;;;;;;12.76;47.20;102359.41;5025898;28;20063;-68
2021/10/11 08:35:12;;;;;;;7.50;0.43;;;;;;;12.84;47.82;102359.19;5036398;28;20111;-68
2021/10/11 08:37:37;;;;;;;3.55;0.43;;;;;;;14.02;47.09;102360.25;5026294;28;20041;-68
2021/10/11 08:40:05;;;;;;;4.07;0.77;;;;;;;14.67;44.37;102357.28;5025648;28;20035;-68
2021/10/11 08:42:31;;;;;;;11.75;0.77;;;;;;;16.07;40.91;102359.25;5025501;28;20037;-68
2021/10/11 08:44:57;;;;;;;4.28;0.57;;;;;;;16.35;39.95;102351.06;5023523;28;20964;-66
2021/10/11 08:47:22;;;;;;;6.40;0.60;;;;;;;16.53;40.02;102346.81;5008743;28;20586;-68
2021/10/11 08:49:50;;;;;;;5.20;0.40;;;;;;;16.34;38.52;102350.22;5027774;28;20060;-68
2021/10/11 08:52:21;;;;;;;8.35;1.52;;;;;;;16.85;38.48;102347.28;5017974;28;20526;-68
2021/10/11 08:54:47;;;;;;;7.78;1.33;;;;;;;16.75;39.39;102350.28;5005003;28;20041;-66
2021/10/11 08:57:19;;;;;;;9.75;1.40;;;;;;;16.89;38.38;102351.47;5008827;28;20069;-69
2021/10/11 08:59:45;;;;;;;4.22;0.47;;;;;;;17.37;37.89;102353.72;5022013;28;20030;-67
2021/10/11 09:02:10;;;;;;;12.60;1.58;;;;;;;17.56;38.18;102348.50;5013549;28;20041;-67
2021/10/11 09:04:56;;;;;;;3.00;0.55;;;;;;;18.01;38.19;102349.88;5023327;28;20104;-67
2021/10/11 09:07:31;;;;;;;9.10;1.17;;;;;;;17.70;36.40;102349.63;5026781;28;20644;-66
2021/10/11 09:09:59;;;;;;;3.60;0.22;;;;;;;17.97;36.75;102353.59;5025027;28;20091;-66
2021/10/11 09:12:30;;;;;;;5.65;0.38;;;;;;;18.22;37.03;102344.50;5042229;28;20064;-68
2021/10/11 09:15:12;;;;;;;6.82;0.38;;;;;;;19.19;34.38;102344.84;5021705;28;20029;-67
2021/10/11 09:17:43;;;;;;;5.85;0.22;;;;;;;19.06;34.84;102342.88;5043882;28;20045;-68
2021/10/11 09:20:24;;;;;;;6.20;0.80;;;;;;;18.60;35.14;102344.38;5046884;28;20564;-67
2021/10/11 09:22:52;;;;;;;7.07;0.68;;;;;;;17.97;35.96;102340.38;5050442;28;20036;-67
2021/10/11 09:25:19;;;;;;;5.50;0.40;;;;;;;18.05;36.18;102340.88;5050438;28;20428;-67
2021/10/11 09:27:55;;;;;;;5.38;0.40;;;;;;;18.17;35.70;102346.50;5050456;28;20519;-67
2021/10/11 09:30:32;;;;;;;5.05;0.45;;;;;;;17.57;35.83;102339.63;5049207;28;20093;-66
2021/10/11 09:33:14;;;;;;;7.50;0.30;;;;;;;16.74;37.00;102337.13;5047706;28;20693;-66
2021/10/11 09:35:42;;;;;;;4.13;0.40;;;;;;;16.52;36.16;102340.69;5052330;28;20048;-71
2021/10/11 09:38:20;;;;;;;7.65;0.40;;;;;;;16.41;36.83;102342.91;5051002;28;20045;-66
2021/10/11 09:40:46;;;;;;;4.32;0.20;;;;;;;15.08;38.33;102354.13;5047442;28;20037;-66
2021/10/11 09:43:13;;;;;;;4.85;0.65;;;;;;;13.79;40.12;102345.19;5033690;28;20045;-66
2021/10/11 09:45:40;;;;;;;7.68;0.25;;;;;;;14.24;39.91;102349.91;5029852;28;20029;-66
2021/10/11 09:48:06;;;;;;;4.38;0.73;;;;;;;15.21;39.82;102344.00;5042590;28;20087;-66
2021/10/11 09:50:33;;;;;;;1.98;0.40;;;;;;;15.93;36.76;102334.25;5049693;28;20060;-67
2021/10/11 09:52:59;;;;;;;7.30;0.20;;;;;;;15.93;36.68;102344.81;5051363;28;20051;-67
2021/10/11 09:55:27;;;;;;;4.60;0.15;;;;;;;15.73;36.12;102342.09;5050640;28;20045;-66
2021/10/11 09:57:53;;;;;;;6.15;0.10;;;;;;;16.11;34.40;102343.25;5050709;28;20041;-67
2021/10/11 10:00:18;;;;;;;2.72;0.10;;;;;;;17.21;34.54;102342.13;5057117;28;20087;-66
2021/10/11 10:02:46;;;;;;;5.00;0.40;;;;;;;17.63;33.34;102344.63;5059830;28;20092;-66
2021/10/11 10:05:14;;;;;;;2.97;0.10;;;;;;;17.05;31.75;102336.69;5062405;28;20064;-66
2021/10/11 10:07:47;;;;;;;11.13;0.25;;;;;;;17.51;32.08;102345.19;5060342;28;20059;-66
2021/10/11 10:10:13;;;;;;;8.25;0.13;;;;;;;17.43;32.20;102342.03;5070524;28;20112;-67
2021/10/11 10:12:47;;;;;;;3.95;0.40;;;;;;;17.92;31.22;102337.09;5079261;28;20056;-67
2021/10/11 10:15:25;;;;;;;5.57;0.32;;;;;;;18.03;31.98;102337.44;5065189;28;20051;-66
2021/10/11 10:18:00;;;;;;;2.40;0.20;;;;;;;17.64;31.69;102335.75;5054817;28;20048;-67
2021/10/11 10:20:25;;;;;;;2.28;0.40;;;;;;;17.88;32.06;102332.88;5058752;28;20048;-66
2021/10/11 10:22:51;;;;;;;5.47;0.32;;;;;;;17.08;32.46;102333.03;5054805;28;20037;-67
2021/10/11 10:25:17;;;;;;;2.45;0.50;;;;;;;16.35;32.81;102338.75;5056774;28;20033;-66
2021/10/11 10:27:44;;;;;;;10.07;0.75;;;;;;;16.87;32.81;102332.19;5056797;28;20056;-67
2021/10/11 10:30:20;;;;;;;1.23;0.45;;;;;;;16.70;33.64;102335.56;5053997;28;20875;-66
2021/10/11 10:33:01;;;;;;;4.85;0.20;;;;;;;16.34;33.72;102329.13;5053193;28;20040;-67
2021/10/11 10:35:29;;;;;;;6.97;0.30;;;;;;;17.42;32.52;102332.38;5058152;28;20111;-67
2021/10/11 10:37:55;;;;;;;7.20;0.95;;;;;;;16.59;32.59;102336.84;5038757;28;20284;-69
2021/10/11 10:40:26;;;;;;;2.33;0.50;;;;;;;17.13;32.40;102334.53;5051799;28;20166;-67
2021/10/11 10:43:03;;;;;;;8.27;0.75;;;;;;;17.20;32.74;102320.16;5053853;28;20732;-67
2021/10/11 10:45:28;;;;;;;7.47;0.30;;;;;;;16.69;33.08;102323.25;5056272;28;20393;-67
2021/10/11 10:47:55;;;;;;;1.48;0.10;;;;;;;16.03;34.89;102344.47;5069301;28;20037;-67
2021/10/11 10:50:24;;;;;;;3.33;0.17;;;;;;;14.85;39.80;102353.16;5052868;28;20414;-67
2021/10/11 10:52:56;;;;;;;3.33;0.57;;;;;;;13.62;44.46;102350.94;5054978;28;20047;-67
2021/10/11 10:55:23;;;;;;;5.40;0.35;;;;;;;12.77;45.52;102349.75;5053665;28;20037;-67
2021/10/11 10:57:53;;;;;;;4.70;0.30;;;;;;;12.75;47.04;102356.81;5054382;28;20127;-66
2021/10/11 11:00:19;;;;;;;3.05;0.68;;;;;;;12.71;46.77;102353.38;5054393;28;20040;-66
2021/10/11 11:02:47;;;;;;;1.83;0.30;;;;;;;13.25;45.85;102354.56;5067720;28;20124;-68
2021/10/11 11:05:14;;;;;;;8.50;0.40;;;;;;;13.27;46.47;102350.13;5056367;28;20032;-67
2021/10/11 11:07:42;;;;;;;6.28;0.47;;;;;;;13.94;45.62;102353.47;5056887;28;20094;-68
2021/10/11 11:10:16;;;;;;;2.83;0.22;;;;;;;14.17;44.43;102351.88;5055418;28;20391;-67
2021/10/11 11:12:45;;;;;;;2.40;0.40;;;;;;;14.23;43.90;102348.19;5051173;28;20048;-68
2021/10/11 11:15:21;;;;;;;7.15;0.50;;;;;;;14.59;44.06;102359.31;5060654;28;20513;-67
2021/10/11 11:17:47;;;;;;;5.28;0.40;;;;;;;15.07;42.72;102341.88;5058890;28;20053;-67
2021/10/11 11:20:15;;;;;;;6.10;0.20;;;;;;;15.68;40.53;102344.03;5056204;28;20048;-67
2021/10/11 11:22:42;;;;;;;7.50;0.82;;;;;;;14.91;40.47;102344.19;5061371;28;20036;-67
2021/10/11 11:25:08;;;;;;;5.80;0.38;;;;;;;14.45;42.04;102345.75;5069895;28;20072;-66